Ban Gong Hu — BOEY — position and weather

sailwx.info

Track history (hours):
 
Tides and Currents Weather Stations Pressure Air Temp Water Temp Dewpoint Dewpoint Depression Visibility Wind Speed Wind Dir Waves Ship Positions

Ban Gong Hu

Last reported at 2018-Apr-16 18:55 UTC. Time now 2018-Apr-19 13:44 UTC.
Position N 09°42' W 079°58'.

Length 229 m; draft 8.5 m.

Type: Tanker. MMSI: 412371000.

Date/timePositionNaut miles runAvg speedWind from/ knotsBaromVisibWave heightAir tempDewpointWater temp
2018-Apr-16 18:55N 09°42' W 079°58'512.4
2018-Apr-16 18:30N 09°37' W 079°57'611.1
2018-Apr-16 18:00N 09°32' W 079°55'510.3
2018-Apr-16 17:28N 09°27' W 079°55'5 9.8
2018-Apr-16 17:00N 09°22' W 079°55'3 6.3
2018-Apr-16 16:30N 09°19' W 079°55'2 4.5
2018-Apr-16 16:00N 09°17' W 079°55'0 0.3
2018-Apr-16 15:30N 09°16' W 079°55'0 0.8
2018-Apr-16 15:00N 09°16' W 079°55'0 0.1
2018-Apr-16 14:30N 09°16' W 079°55'1 1.4
2018-Apr-16 13:59N 09°15' W 079°55'0 0.6
2018-Apr-16 13:29N 09°15' W 079°55'2 3.0
2018-Apr-16 12:57N 09°13' W 079°55'4 6.4
2018-Apr-16 12:24N 09°11' W 079°53'  
Track history (hours):
 
Tides and Currents Weather Stations Pressure Air Temp Water Temp Dewpoint Dewpoint Depression Visibility Wind Speed Wind Dir Waves Ship Positions

Ban Gong Hu

Last reported at 2018-Apr-16 18:55 UTC. Time now 2018-Apr-19 13:44 UTC.
Position N 09°42' W 079°58'.

Length 229 m; draft 8.5 m.

Type: Tanker. MMSI: 412371000.

Date/timePositionNaut miles runAvg speedWind from/ knotsBaromVisibWave heightAir tempDewpointWater temp
2018-Apr-16 18:55N 09°42' W 079°58'512.4
2018-Apr-16 18:30N 09°37' W 079°57'611.1
2018-Apr-16 18:00N 09°32' W 079°55'510.3
2018-Apr-16 17:28N 09°27' W 079°55'5 9.8
2018-Apr-16 17:00N 09°22' W 079°55'3 6.3
2018-Apr-16 16:30N 09°19' W 079°55'2 4.5
2018-Apr-16 16:00N 09°17' W 079°55'0 0.3
2018-Apr-16 15:30N 09°16' W 079°55'0 0.8
2018-Apr-16 15:00N 09°16' W 079°55'0 0.1
2018-Apr-16 14:30N 09°16' W 079°55'1 1.4
2018-Apr-16 13:59N 09°15' W 079°55'0 0.6
2018-Apr-16 13:29N 09°15' W 079°55'2 3.0
2018-Apr-16 12:57N 09°13' W 079°55'4 6.4
2018-Apr-16 12:24N 09°11' W 079°53'  

Dump ship's entire track history